createdAt,value
2016-11-23T00:00:59.317Z,-90
2016-11-23T00:01:59.465Z,-90
2016-11-23T00:02:59.491Z,-90
2016-11-23T00:03:59.183Z,-90
2016-11-23T00:04:59.478Z,-91
2016-11-23T00:05:59.477Z,-90
2016-11-23T00:06:59.331Z,-90
2016-11-23T00:07:59.397Z,-91
2016-11-23T00:08:59.344Z,-91
2016-11-23T00:09:59.493Z,-91
2016-11-23T00:10:59.201Z,-91
2016-11-23T00:11:59.511Z,-90
2016-11-23T00:12:59.393Z,-90
2016-11-23T00:13:59.675Z,-90
2016-11-23T00:14:59.227Z,-90
2016-11-23T00:15:59.371Z,-91
2016-11-23T00:16:59.496Z,-90
2016-11-23T00:17:59.985Z,-90
2016-11-23T00:18:59.532Z,-89
2016-11-23T00:19:59.388Z,-89
2016-11-23T00:20:59.502Z,-90
2016-11-23T00:21:59.395Z,-90
2016-11-23T00:22:59.391Z,-90
2016-11-23T00:23:59.706Z,-90
2016-11-23T00:24:59.674Z,-91
2016-11-23T00:25:59.541Z,-90
2016-11-23T00:26:59.308Z,-91
2016-11-23T00:27:59.404Z,-90
2016-11-23T00:28:59.597Z,-91
2016-11-23T00:29:59.579Z,-90
2016-11-23T00:30:59.262Z,-91
2016-11-23T00:31:59.407Z,-89
2016-11-23T00:32:59.431Z,-91
2016-11-23T00:33:59.413Z,-90
2016-11-23T00:34:59.438Z,-90
2016-11-23T00:35:59.562Z,-90
2016-11-23T00:36:59.267Z,-91
2016-11-23T00:37:59.413Z,-91
2016-11-23T00:38:59.710Z,-91
2016-11-23T00:39:59.463Z,-90
2016-11-23T00:40:59.455Z,-91
2016-11-23T00:41:59.431Z,-90
2016-11-23T00:42:59.282Z,-89
2016-11-23T00:43:59.293Z,-91
2016-11-23T00:44:59.446Z,-91
2016-11-23T00:45:59.476Z,-91
2016-11-23T00:46:59.649Z,-90
2016-11-23T00:47:59.590Z,-91
2016-11-23T00:48:59.473Z,-91
2016-11-23T00:49:59.478Z,-91
2016-11-23T00:50:59.794Z,-90
2016-11-23T00:51:59.320Z,-91
2016-11-23T00:52:59.536Z,-91
2016-11-23T00:53:59.618Z,-91
2016-11-23T00:54:59.654Z,-90
2016-11-23T00:55:59.601Z,-90
2016-11-23T00:56:59.358Z,-91
2016-11-23T00:57:59.611Z,-91
2016-11-23T00:58:59.770Z,-90
2016-11-23T00:59:59.793Z,-91
2016-11-23T01:00:59.484Z,-90
2016-11-23T01:01:59.398Z,-91
2016-11-23T01:02:59.642Z,-90
2016-11-23T01:03:59.517Z,-91
2016-11-23T01:04:59.345Z,-90
2016-11-23T01:05:59.496Z,-90
2016-11-23T01:06:59.520Z,-91
2016-11-23T01:07:59.510Z,-91
2016-11-23T01:08:59.663Z,-91
2016-11-23T01:09:59.667Z,-91
2016-11-23T01:10:59.655Z,-90
2016-11-23T01:11:59.634Z,-91
2016-11-23T01:12:59.529Z,-89
2016-11-23T01:13:59.837Z,-91
2016-11-23T01:14:59.676Z,-91
2016-11-23T01:15:59.812Z,-90
2016-11-23T01:16:59.665Z,-91
2016-11-23T01:17:59.875Z,-91
2016-11-23T01:18:59.682Z,-91
2016-11-23T01:19:59.822Z,-91
2016-11-23T01:20:59.549Z,-91
2016-11-23T01:21:59.600Z,-90
2016-11-23T01:22:59.588Z,-91
2016-11-23T01:23:59.546Z,-91
2016-11-23T01:24:59.853Z,-90
2016-11-23T01:25:59.703Z,-91
2016-11-23T01:26:59.697Z,-90
2016-11-23T01:27:59.458Z,-91
2016-11-23T01:28:59.837Z,-91
2016-11-23T01:29:59.584Z,-90
2016-11-23T01:30:59.617Z,-91
2016-11-23T01:31:59.751Z,-90
2016-11-23T01:32:59.434Z,-91
2016-11-23T01:33:59.873Z,-90
2016-11-23T01:34:59.603Z,-91
2016-11-23T01:35:59.863Z,-91
2016-11-23T01:36:59.726Z,-90
2016-11-23T01:37:59.574Z,-91
2016-11-23T01:38:59.750Z,-91
2016-11-23T01:39:59.748Z,-90
2016-11-23T01:40:59.741Z,-91
2016-11-23T01:41:59.593Z,-90
2016-11-23T01:42:59.731Z,-92
2016-11-23T01:43:59.778Z,-91
2016-11-23T01:44:59.505Z,-91
2016-11-23T01:45:59.464Z,-91
2016-11-23T01:46:59.626Z,-91
2016-11-23T01:47:59.767Z,-91
2016-11-23T01:48:59.781Z,-91
2016-11-23T01:49:59.802Z,-91
2016-11-23T01:50:59.610Z,-91
2016-11-23T01:51:59.634Z,-91
2016-11-23T01:52:59.490Z,-92
2016-11-23T01:53:59.504Z,-90
2016-11-23T01:54:59.780Z,-91
2016-11-23T01:55:59.771Z,-91
2016-11-23T01:57:00.018Z,-90
2016-11-23T01:57:59.524Z,-91
2016-11-23T01:58:59.654Z,-91
2016-11-23T01:59:59.769Z,-91
2016-11-23T02:00:59.791Z,-91
2016-11-23T02:01:59.806Z,-90
2016-11-23T02:02:59.807Z,-91
2016-11-23T02:03:59.647Z,-91
2016-11-23T02:04:59.686Z,-91
2016-11-23T02:05:59.720Z,-91
2016-11-23T02:06:59.676Z,-91
2016-11-23T02:07:59.803Z,-91
2016-11-23T02:08:59.686Z,-91
2016-11-23T02:09:59.542Z,-92
2016-11-23T02:10:59.839Z,-91
2016-11-23T02:11:59.688Z,-91
2016-11-23T02:12:59.684Z,-91
2016-11-23T02:13:59.815Z,-91
2016-11-23T02:14:59.686Z,-91
2016-11-23T02:15:59.866Z,-92
2016-11-23T02:16:59.858Z,-91
2016-11-23T02:17:59.843Z,-91
2016-11-23T02:18:59.572Z,-91
2016-11-23T02:19:59.999Z,-91
2016-11-23T02:20:59.996Z,-91
2016-11-23T02:22:00.025Z,-91
2016-11-23T02:22:59.727Z,-91
2016-11-23T02:23:59.938Z,-91
2016-11-23T02:24:59.865Z,-91
2016-11-23T02:25:59.728Z,-92
2016-11-23T02:26:59.880Z,-91
2016-11-23T02:27:59.735Z,-91
2016-11-23T02:28:59.744Z,-91
2016-11-23T02:29:59.740Z,-91
2016-11-23T02:30:59.882Z,-91
2016-11-23T02:31:59.642Z,-91
2016-11-23T02:32:59.753Z,-91
2016-11-23T02:33:59.895Z,-91
2016-11-23T02:34:59.784Z,-91
2016-11-23T02:35:59.894Z,-91
2016-11-23T02:36:59.900Z,-91
2016-11-23T02:37:59.940Z,-91
2016-11-23T02:38:59.743Z,-91
2016-11-23T02:39:59.892Z,-91
2016-11-23T02:40:59.760Z,-91
2016-11-23T02:41:59.911Z,-91
2016-11-23T02:42:59.793Z,-91
2016-11-23T02:43:59.963Z,-91
2016-11-23T02:44:59.924Z,-91
2016-11-23T02:45:59.795Z,-91
2016-11-23T02:46:59.924Z,-91
2016-11-23T02:47:59.661Z,-91
2016-11-23T02:48:59.938Z,-91
2016-11-23T02:49:59.974Z,-91
2016-11-23T02:51:00.078Z,-91
2016-11-23T02:52:00.084Z,-92
2016-11-23T02:53:00.072Z,-91
2016-11-23T02:53:59.910Z,-90
2016-11-23T02:55:00.090Z,-88
2016-11-23T02:55:59.972Z,-92
2016-11-23T02:56:59.660Z,-91
2016-11-23T02:57:59.991Z,-91
2016-11-23T02:58:59.965Z,-91
2016-11-23T02:59:59.811Z,-91
2016-11-23T03:01:00.099Z,-91
2016-11-23T03:02:00.030Z,-91
2016-11-23T03:02:59.828Z,-92
2016-11-23T03:04:00.145Z,-91
2016-11-23T03:04:59.844Z,-91
2016-11-23T03:05:59.975Z,-90
2016-11-23T03:06:59.839Z,-91
2016-11-23T03:08:00.000Z,-91
2016-11-23T03:08:59.994Z,-91
2016-11-23T03:09:59.742Z,-91
2016-11-23T03:10:59.985Z,-91
2016-11-23T03:11:59.714Z,-91
2016-11-23T03:12:59.983Z,-91
2016-11-23T03:13:59.886Z,-91
2016-11-23T03:14:59.900Z,-92
2016-11-23T03:15:59.724Z,-91
2016-11-23T03:17:00.013Z,-91
2016-11-23T03:17:59.729Z,-91
2016-11-23T03:19:00.123Z,-92
2016-11-23T03:19:59.768Z,-92
2016-11-23T03:20:59.896Z,-91
2016-11-23T03:22:00.189Z,-91
2016-11-23T03:23:00.032Z,-91
2016-11-23T03:24:00.039Z,-91
2016-11-23T03:25:00.070Z,-91
2016-11-23T03:26:00.069Z,-91
2016-11-23T03:27:00.041Z,-91
2016-11-23T03:28:00.021Z,-91
2016-11-23T03:28:59.903Z,-91
2016-11-23T03:30:00.217Z,-91
2016-11-23T03:30:59.963Z,-91
2016-11-23T03:32:00.065Z,-91
2016-11-23T03:32:59.919Z,-91
2016-11-23T03:33:59.780Z,-91
2016-11-23T03:35:00.205Z,-90
2016-11-23T03:36:00.136Z,-91
2016-11-23T03:37:00.077Z,-90
2016-11-23T03:37:59.923Z,-91
2016-11-23T03:39:00.069Z,-91
2016-11-23T03:40:00.074Z,-91
2016-11-23T03:41:00.089Z,-90
2016-11-23T03:41:59.800Z,-91
2016-11-23T03:42:59.941Z,-91
2016-11-23T03:43:59.796Z,-91
2016-11-23T03:45:00.122Z,-92
2016-11-23T03:45:59.947Z,-91
2016-11-23T03:46:59.976Z,-92
2016-11-23T03:48:00.244Z,-91
2016-11-23T03:48:59.953Z,-91
2016-11-23T03:49:59.813Z,-91
2016-11-23T03:51:00.264Z,-91
2016-11-23T03:52:00.222Z,-91
2016-11-23T03:53:00.011Z,-91
2016-11-23T03:53:59.977Z,-91
2016-11-23T03:55:00.126Z,-91
2016-11-23T03:56:00.047Z,-91
2016-11-23T03:56:59.998Z,-91
2016-11-23T03:58:00.016Z,-91
2016-11-23T03:59:00.118Z,-91
2016-11-23T04:00:00.007Z,-91
2016-11-23T04:01:00.121Z,-91
2016-11-23T04:02:00.283Z,-91
2016-11-23T04:02:59.990Z,-92
2016-11-23T04:03:59.995Z,-91
2016-11-23T04:05:00.237Z,-91
2016-11-23T04:06:00.133Z,-92
2016-11-23T04:07:00.160Z,-91
2016-11-23T04:08:00.032Z,-91
2016-11-23T04:09:00.015Z,-91
2016-11-23T04:10:00.158Z,-91
2016-11-23T04:11:00.151Z,-92
2016-11-23T04:12:00.025Z,-91
2016-11-23T04:13:00.017Z,-91
2016-11-23T04:14:00.341Z,-92
2016-11-23T04:15:00.173Z,-91
2016-11-23T04:16:00.317Z,-92
2016-11-23T04:17:00.058Z,-91
2016-11-23T04:18:00.036Z,-91
2016-11-23T04:19:00.048Z,-91
2016-11-23T04:20:00.046Z,-92
2016-11-23T04:21:00.325Z,-90
2016-11-23T04:22:00.172Z,-92
2016-11-23T04:23:00.506Z,-90
2016-11-23T04:24:00.225Z,-91
2016-11-23T04:25:00.194Z,-91
2016-11-23T04:26:00.206Z,-91
2016-11-23T04:27:00.063Z,-92
2016-11-23T04:28:00.085Z,-91
2016-11-23T04:29:00.082Z,-92
2016-11-23T04:30:00.396Z,-91
2016-11-23T04:31:00.147Z,-91
2016-11-23T04:32:00.211Z,-91
2016-11-23T04:33:00.378Z,-91
2016-11-23T04:34:00.227Z,-90
2016-11-23T04:35:00.265Z,-91
2016-11-23T04:36:00.077Z,-91
2016-11-23T04:37:00.104Z,-91
2016-11-23T04:37:59.945Z,-91
2016-11-23T04:39:00.249Z,-91
2016-11-23T04:40:00.286Z,-91
2016-11-23T04:41:00.241Z,-92
2016-11-23T04:42:00.263Z,-92
2016-11-23T04:43:00.122Z,-91
2016-11-23T04:44:00.117Z,-91
2016-11-23T04:45:00.114Z,-91
2016-11-23T04:46:00.145Z,-91
2016-11-23T04:47:00.131Z,-91
2016-11-23T04:48:00.131Z,-91
2016-11-23T04:49:00.194Z,-91
2016-11-23T04:50:00.270Z,-90
2016-11-23T04:51:00.174Z,-90
2016-11-23T04:52:00.275Z,-91
2016-11-23T04:53:00.304Z,-91
2016-11-23T04:54:00.168Z,-91
2016-11-23T04:55:00.299Z,-91
2016-11-23T04:56:00.176Z,-91
2016-11-23T04:57:00.013Z,-91
2016-11-23T04:58:00.055Z,-91
2016-11-23T04:59:00.009Z,-91
2016-11-23T05:00:00.290Z,-91
2016-11-23T05:01:00.157Z,-91
2016-11-23T05:02:00.449Z,-92
2016-11-23T05:03:00.157Z,-91
2016-11-23T05:04:00.165Z,-92
2016-11-23T05:05:00.149Z,-91
2016-11-23T05:06:00.322Z,-91
2016-11-23T05:07:00.370Z,-91
2016-11-23T05:08:00.030Z,-92
2016-11-23T05:09:00.174Z,-91
2016-11-23T05:10:00.074Z,-91
2016-11-23T05:11:00.320Z,-91
2016-11-23T05:12:00.221Z,-91
2016-11-23T05:13:00.181Z,-90
2016-11-23T05:14:00.594Z,-90
2016-11-23T05:15:00.349Z,-91
2016-11-23T05:16:00.054Z,-91
2016-11-23T05:17:00.360Z,-92
2016-11-23T05:18:00.093Z,-91
2016-11-23T05:19:00.092Z,-91
2016-11-23T05:20:00.223Z,-91
2016-11-23T05:21:00.242Z,-92
2016-11-23T05:22:00.207Z,-91
2016-11-23T05:23:00.236Z,-90
2016-11-23T05:24:00.512Z,-91
2016-11-23T05:25:00.396Z,-91
2016-11-23T05:26:00.242Z,-91
2016-11-23T05:27:00.100Z,-91
2016-11-23T05:28:00.299Z,-90
2016-11-23T05:29:00.108Z,-91
2016-11-23T05:30:00.498Z,-88
2016-11-23T05:31:00.236Z,-91
2016-11-23T05:32:00.230Z,-91
2016-11-23T05:33:00.242Z,-89
2016-11-23T05:34:00.178Z,-91
2016-11-23T05:35:00.386Z,-91
2016-11-23T05:36:00.394Z,-91
2016-11-23T05:37:00.388Z,-91
2016-11-23T05:38:00.186Z,-92
2016-11-23T05:39:00.421Z,-91
2016-11-23T05:40:00.271Z,-91
2016-11-23T05:41:00.570Z,-91
2016-11-23T05:42:00.576Z,-90
2016-11-23T05:43:00.418Z,-91
2016-11-23T05:44:00.409Z,-91
2016-11-23T05:45:00.438Z,-91
2016-11-23T05:46:00.277Z,-90
2016-11-23T05:47:00.290Z,-91
2016-11-23T05:48:00.429Z,-92
2016-11-23T05:49:00.157Z,-91
2016-11-23T05:50:00.477Z,-91
2016-11-23T05:51:00.295Z,-91
2016-11-23T05:52:00.303Z,-91
2016-11-23T05:53:00.444Z,-91
2016-11-23T05:54:00.581Z,-91
2016-11-23T05:55:00.495Z,-91
2016-11-23T05:56:00.507Z,-91
2016-11-23T05:57:00.615Z,-91
2016-11-23T05:58:00.652Z,-91
2016-11-23T05:59:00.176Z,-91
2016-11-23T06:00:00.502Z,-91
2016-11-23T06:01:00.464Z,-91
2016-11-23T06:02:00.218Z,-91
2016-11-23T06:03:00.354Z,-91
2016-11-23T06:04:00.205Z,-91
2016-11-23T06:05:00.478Z,-91
2016-11-23T06:06:00.504Z,-91
2016-11-23T06:07:00.366Z,-90
2016-11-23T06:08:00.377Z,-89
2016-11-23T06:09:00.513Z,-92
2016-11-23T06:10:00.357Z,-92
2016-11-23T06:11:00.653Z,-91
2016-11-23T06:12:00.361Z,-91
2016-11-23T06:13:00.641Z,-91
2016-11-23T06:14:00.510Z,-91
2016-11-23T06:15:00.219Z,-91
2016-11-23T06:16:00.406Z,-91
2016-11-23T06:17:00.522Z,-90
2016-11-23T06:18:00.652Z,-91
2016-11-23T06:19:00.379Z,-92
2016-11-23T06:20:00.520Z,-91
2016-11-23T06:21:00.528Z,-91
2016-11-23T06:22:00.733Z,-91
2016-11-23T06:23:00.373Z,-92
2016-11-23T06:24:00.390Z,-91
2016-11-23T06:25:00.535Z,-90
2016-11-23T06:26:00.569Z,-91
2016-11-23T06:27:00.436Z,-91
2016-11-23T06:28:00.466Z,-91
2016-11-23T06:29:00.407Z,-91
2016-11-23T06:30:00.556Z,-91
2016-11-23T06:31:00.457Z,-91
2016-11-23T06:32:00.448Z,-90
2016-11-23T06:33:00.396Z,-91
2016-11-23T06:34:00.413Z,-92
2016-11-23T06:35:00.410Z,-90
2016-11-23T06:36:00.421Z,-91
2016-11-23T06:37:00.286Z,-92
2016-11-23T06:38:00.498Z,-91
2016-11-23T06:39:00.636Z,-91
2016-11-23T06:40:00.571Z,-91
2016-11-23T06:41:00.717Z,-91
2016-11-23T06:42:00.580Z,-91
2016-11-23T06:43:00.765Z,-91
2016-11-23T06:44:00.455Z,-91
2016-11-23T06:45:00.576Z,-91
2016-11-23T06:46:00.666Z,-91
2016-11-23T06:47:00.493Z,-91
2016-11-23T06:48:00.466Z,-91
2016-11-23T06:49:00.457Z,-91
2016-11-23T06:50:00.482Z,-91
2016-11-23T06:51:00.766Z,-91
2016-11-23T06:52:00.614Z,-91
2016-11-23T06:53:00.463Z,-91
2016-11-23T06:54:00.646Z,-92
2016-11-23T06:55:00.322Z,-91
2016-11-23T06:56:00.493Z,-91
2016-11-23T06:57:00.821Z,-91
2016-11-23T06:58:00.783Z,-90
2016-11-23T06:59:00.499Z,-90
2016-11-23T07:00:00.720Z,-90
2016-11-23T07:01:00.796Z,-91
2016-11-23T07:02:00.757Z,-90
2016-11-23T07:03:00.664Z,-91
2016-11-23T07:04:00.582Z,-91
2016-11-23T07:05:00.539Z,-90
2016-11-23T07:06:00.362Z,-91
2016-11-23T07:07:00.609Z,-94
2016-11-23T07:08:00.495Z,-93
2016-11-23T07:09:00.708Z,-94
2016-11-23T07:10:00.782Z,-94
2016-11-23T07:11:00.772Z,-94
2016-11-23T07:12:00.729Z,-95
2016-11-23T07:13:00.708Z,-94
2016-11-23T07:14:00.905Z,-93
2016-11-23T07:15:00.774Z,-93
2016-11-23T07:16:00.733Z,-93
2016-11-23T07:17:00.548Z,-92
2016-11-23T07:18:00.403Z,-93
2016-11-23T07:19:00.539Z,-92
2016-11-23T07:20:00.730Z,-92
2016-11-23T07:21:00.720Z,-92
2016-11-23T07:22:00.664Z,-92
2016-11-23T07:23:00.559Z,-92
2016-11-23T07:24:00.811Z,-92
2016-11-23T07:25:00.748Z,-94
2016-11-23T07:26:00.761Z,-93
2016-11-23T07:27:00.464Z,-93
2016-11-23T07:28:00.969Z,-91
2016-11-23T07:29:00.640Z,-91
2016-11-23T07:30:00.726Z,-92
2016-11-23T07:31:00.734Z,-92
2016-11-23T07:32:00.965Z,-91
2016-11-23T07:33:00.481Z,-91
2016-11-23T07:34:00.754Z,-91
2016-11-23T07:35:00.739Z,-91
2016-11-23T07:36:00.627Z,-91
2016-11-23T07:37:00.775Z,-92
2016-11-23T07:38:00.893Z,-92
2016-11-23T07:39:00.614Z,-92
2016-11-23T07:40:00.792Z,-92
2016-11-23T07:41:00.896Z,-92
2016-11-23T07:42:00.792Z,-91
2016-11-23T07:43:00.485Z,-92
2016-11-23T07:44:00.698Z,-92
2016-11-23T07:45:00.644Z,-92
2016-11-23T07:46:00.764Z,-92
2016-11-23T07:47:00.801Z,-91
2016-11-23T07:48:00.629Z,-91
2016-11-23T07:49:00.495Z,-92
2016-11-23T07:50:00.809Z,-91
2016-11-23T07:51:00.680Z,-92
2016-11-23T07:52:00.867Z,-92
2016-11-23T07:53:02.889Z,-92
2016-11-23T07:54:00.739Z,-92
2016-11-23T07:55:00.527Z,-91
2016-11-23T07:56:00.784Z,-92
2016-11-23T07:57:00.526Z,-91
2016-11-23T07:58:00.836Z,-92
2016-11-23T07:59:00.861Z,-92
2016-11-23T08:00:00.979Z,-92
2016-11-23T08:01:00.810Z,-91
2016-11-23T08:02:00.695Z,-92
2016-11-23T08:03:00.907Z,-91
2016-11-23T08:04:00.742Z,-91
2016-11-23T08:05:00.718Z,-91
2016-11-23T08:06:00.543Z,-92
2016-11-23T08:07:00.846Z,-91
2016-11-23T08:08:00.850Z,-91
2016-11-23T08:09:00.840Z,-90
2016-11-23T08:10:01.643Z,-91
2016-11-23T08:11:00.877Z,-94
2016-11-23T08:12:00.817Z,-94
2016-11-23T08:13:00.851Z,-92
2016-11-23T08:14:00.916Z,-95
2016-11-23T08:15:00.791Z,-95
2016-11-23T08:16:00.891Z,-95
2016-11-23T08:17:01.759Z,-95
2016-11-23T08:18:01.025Z,-94
2016-11-23T08:19:00.878Z,-94
2016-11-23T08:20:00.938Z,-95
2016-11-23T08:21:01.010Z,-94
2016-11-23T08:22:01.017Z,-93
2016-11-23T08:23:00.590Z,-96
2016-11-23T08:24:01.178Z,-95
2016-11-23T08:25:00.893Z,-94
2016-11-23T08:26:00.869Z,-95
2016-11-23T08:27:00.866Z,-94
2016-11-23T08:28:01.340Z,-96
2016-11-23T08:29:00.786Z,-94
2016-11-23T08:30:00.837Z,-94
2016-11-23T08:31:00.748Z,-95
2016-11-23T08:32:00.833Z,-95
2016-11-23T08:33:01.197Z,-96
2016-11-23T08:34:00.911Z,-95
2016-11-23T08:35:00.929Z,-95
2016-11-23T08:36:00.762Z,-96
2016-11-23T08:37:00.766Z,-96
2016-11-23T08:38:00.774Z,-96
2016-11-23T08:39:00.809Z,-95
2016-11-23T08:40:00.846Z,-96
2016-11-23T08:41:00.775Z,-96
2016-11-23T08:42:00.863Z,-94
2016-11-23T08:43:00.822Z,-95
2016-11-23T08:44:01.006Z,-95
2016-11-23T08:45:00.775Z,-95
2016-11-23T08:46:00.855Z,-94
2016-11-23T08:47:01.117Z,-94
2016-11-23T08:48:00.826Z,-95
2016-11-23T08:49:00.913Z,-95
2016-11-23T08:50:00.815Z,-95
2016-11-23T08:51:07.245Z,-95
2016-11-23T08:52:01.082Z,-95
2016-11-23T08:53:00.744Z,-96
2016-11-23T08:54:08.584Z,-96
2016-11-23T08:55:06.132Z,-96
2016-11-23T08:56:01.262Z,-96
2016-11-23T08:57:50.619Z,-96
2016-11-23T08:58:14.044Z,-96
2016-11-23T09:00:33.909Z,-96
2016-11-23T09:00:57.318Z,-96
2016-11-23T09:01:41.365Z,-96
2016-11-23T09:03:16.337Z,-96
2016-11-23T09:04:13.621Z,-96
2016-11-23T09:05:34.073Z,-96
2016-11-23T09:06:27.072Z,-92
2016-11-23T09:06:41.936Z,-94
2016-11-23T09:07:41.212Z,-95
2016-11-23T09:08:45.279Z,-91
2016-11-23T09:09:41.496Z,-96
2016-11-23T09:10:41.280Z,-93
2016-11-23T09:11:45.448Z,-96
2016-11-23T09:12:41.625Z,-96
2016-11-23T09:13:41.439Z,-96
2016-11-23T09:14:41.240Z,-92
2016-11-23T09:15:41.440Z,-96
2016-11-23T09:16:41.506Z,-94
2016-11-23T09:17:41.440Z,-96
2016-11-23T09:18:43.114Z,-94
2016-11-23T09:19:41.361Z,-91
2016-11-23T09:20:42.200Z,-94
2016-11-23T09:21:48.288Z,-96
2016-11-23T09:22:41.215Z,-92
2016-11-23T09:23:41.619Z,-94
2016-11-23T09:24:44.831Z,-93
2016-11-23T09:25:41.784Z,-93
2016-11-23T09:26:41.497Z,-91
2016-11-23T09:27:41.248Z,-93
2016-11-23T09:28:41.414Z,-91
2016-11-23T09:29:41.923Z,-95
2016-11-23T09:30:41.569Z,-95
2016-11-23T09:31:41.551Z,-96
2016-11-23T09:32:41.548Z,-96
2016-11-23T09:33:41.452Z,-96
2016-11-23T09:34:41.537Z,-96
2016-11-23T09:35:41.532Z,-96
2016-11-23T09:36:41.262Z,-96
2016-11-23T09:37:41.563Z,-94
2016-11-23T09:38:41.386Z,-95
2016-11-23T09:39:42.763Z,-96
2016-11-23T09:40:41.390Z,-95
2016-11-23T09:41:41.423Z,-96
2016-11-23T09:42:42.542Z,-95
2016-11-23T09:43:41.560Z,-95
2016-11-23T09:44:41.741Z,-96
2016-11-23T09:45:41.581Z,-95
2016-11-23T09:46:41.442Z,-96
2016-11-23T09:47:41.578Z,-96
2016-11-23T09:48:41.471Z,-95
2016-11-23T09:49:41.444Z,-96
2016-11-23T09:50:41.505Z,-96
2016-11-23T09:51:41.460Z,-96
2016-11-23T09:52:41.460Z,-96
2016-11-23T09:53:41.469Z,-96
2016-11-23T09:54:41.518Z,-95
2016-11-23T09:55:41.612Z,-95
2016-11-23T09:56:41.461Z,-96
2016-11-23T09:57:41.461Z,-96
2016-11-23T09:58:41.483Z,-96
2016-11-23T09:59:41.610Z,-96
2016-11-23T10:00:41.792Z,-95
2016-11-23T10:01:41.466Z,-96
2016-11-23T10:02:41.515Z,-96
2016-11-23T10:03:41.631Z,-96
2016-11-23T10:04:41.806Z,-96
2016-11-23T10:05:41.698Z,-96
2016-11-23T10:06:41.707Z,-95
2016-11-23T10:07:41.661Z,-96
2016-11-23T10:08:41.664Z,-96
2016-11-23T10:09:44.193Z,-96
2016-11-23T10:10:41.648Z,-91
2016-11-23T10:11:41.696Z,-96
2016-11-23T10:12:41.544Z,-96
2016-11-23T10:13:41.644Z,-96
2016-11-23T10:14:41.662Z,-96
2016-11-23T10:15:41.518Z,-96
2016-11-23T10:16:41.793Z,-95
2016-11-23T10:17:41.660Z,-96
2016-11-23T10:18:41.575Z,-95
2016-11-23T10:19:41.686Z,-96
2016-11-23T10:20:41.386Z,-96
2016-11-23T10:21:41.701Z,-95
2016-11-23T10:22:41.651Z,-96
2016-11-23T10:23:41.728Z,-96
2016-11-23T10:24:41.733Z,-96
2016-11-23T10:25:41.887Z,-96
2016-11-23T10:26:41.674Z,-96
2016-11-23T10:27:41.786Z,-96
2016-11-23T10:28:41.883Z,-96
2016-11-23T10:29:41.562Z,-95
2016-11-23T10:30:41.407Z,-95
2016-11-23T10:31:41.800Z,-96
2016-11-23T10:32:41.895Z,-96
2016-11-23T10:33:41.522Z,-96
2016-11-23T10:34:41.574Z,-95
2016-11-23T10:35:41.427Z,-95
2016-11-23T10:36:41.560Z,-96
2016-11-23T10:37:41.641Z,-96
2016-11-23T10:38:42.767Z,-96
2016-11-23T10:39:41.745Z,-96
2016-11-23T10:40:41.742Z,-96
2016-11-23T10:41:41.808Z,-95
2016-11-23T10:42:41.811Z,-96
2016-11-23T10:43:42.420Z,-96
2016-11-23T10:44:41.624Z,-96
2016-11-23T10:45:41.756Z,-91
2016-11-23T10:46:41.758Z,-92
2016-11-23T10:47:42.144Z,-93
2016-11-23T10:48:41.772Z,-92
2016-11-23T10:49:41.981Z,-94
2016-11-23T10:50:42.190Z,-96
2016-11-23T10:51:42.007Z,-95
2016-11-23T10:52:41.828Z,-95
2016-11-23T10:53:41.731Z,-96
2016-11-23T10:54:41.698Z,-96
2016-11-23T10:55:41.645Z,-93
2016-11-23T10:56:41.710Z,-95
2016-11-23T10:57:41.822Z,-95
2016-11-23T10:58:41.962Z,-96
2016-11-23T10:59:41.768Z,-96
2016-11-23T11:00:41.775Z,-96
2016-11-23T11:01:42.832Z,-96
2016-11-23T11:02:47.344Z,-96
2016-11-23T11:03:45.994Z,-96
2016-11-23T11:05:46.285Z,-96
2016-11-23T11:05:55.681Z,-96
2016-11-23T11:07:53.962Z,-96
2016-11-23T11:08:42.617Z,-96
2016-11-23T11:11:48.656Z,-95
2016-11-23T11:12:29.842Z,-92
2016-11-23T11:13:31.299Z,-90
2016-11-23T11:14:28.421Z,-95
2016-11-23T11:15:28.646Z,-89
2016-11-23T11:16:29.835Z,-96
2016-11-23T11:17:30.095Z,-96
2016-11-23T11:18:29.166Z,-96
2016-11-23T11:19:28.323Z,-96
2016-11-23T11:20:28.645Z,-94
2016-11-23T11:21:28.738Z,-96
2016-11-23T11:22:28.496Z,-95
2016-11-23T11:23:28.574Z,-96
2016-11-23T11:24:28.303Z,-95
2016-11-23T11:25:28.618Z,-94
2016-11-23T11:26:28.563Z,-95
2016-11-23T11:27:28.955Z,-94
2016-11-23T11:28:28.732Z,-93
2016-11-23T11:29:28.606Z,-94
2016-11-23T11:30:28.622Z,-95
2016-11-23T11:31:28.521Z,-95
2016-11-23T11:32:28.524Z,-96
2016-11-23T11:33:28.463Z,-95
2016-11-23T11:34:28.643Z,-96
2016-11-23T11:35:28.831Z,-94
2016-11-23T11:36:28.914Z,-95
2016-11-23T11:37:28.881Z,-96
2016-11-23T11:38:28.493Z,-96
2016-11-23T11:39:28.463Z,-96
2016-11-23T11:40:28.497Z,-96
2016-11-23T11:41:28.809Z,-96
2016-11-23T11:42:28.999Z,-96
2016-11-23T11:43:28.919Z,-96
2016-11-23T11:44:28.483Z,-96
2016-11-23T11:45:28.646Z,-96
2016-11-23T11:46:28.355Z,-96
2016-11-23T11:47:28.432Z,-95
2016-11-23T11:48:28.722Z,-96
2016-11-23T11:49:29.671Z,-96
2016-11-23T11:50:29.409Z,-95
2016-11-23T11:51:28.675Z,-96
2016-11-23T11:52:28.760Z,-96
2016-11-23T11:53:28.485Z,-94
2016-11-23T11:54:29.342Z,-95
2016-11-23T11:55:30.275Z,-95
2016-11-23T11:56:28.907Z,-95
2016-11-23T11:57:28.606Z,-94
2016-11-23T11:58:28.582Z,-93
2016-11-23T11:59:28.770Z,-93
2016-11-23T12:00:28.826Z,-93
2016-11-23T12:01:28.598Z,-92
2016-11-23T12:02:28.654Z,-93
2016-11-23T12:03:28.577Z,-93
2016-11-23T12:04:28.609Z,-91
2016-11-23T12:05:28.727Z,-93
2016-11-23T12:06:30.329Z,-95
2016-11-23T12:07:28.673Z,-94
2016-11-23T12:08:28.652Z,-95
2016-11-23T12:09:28.687Z,-93
2016-11-23T12:10:28.565Z,-94
2016-11-23T12:11:28.649Z,-91
2016-11-23T12:12:28.799Z,-95
2016-11-23T12:13:28.591Z,-93
2016-11-23T12:14:28.855Z,-94
2016-11-23T12:15:28.588Z,-95
2016-11-23T12:16:28.789Z,-95
2016-11-23T12:17:28.654Z,-95
2016-11-23T12:18:28.839Z,-95
2016-11-23T12:19:28.985Z,-94
2016-11-23T12:20:29.721Z,-95
2016-11-23T12:21:28.814Z,-96
2016-11-23T12:22:29.906Z,-95
2016-11-23T12:23:28.615Z,-94
2016-11-23T12:24:28.732Z,-96
2016-11-23T12:25:28.970Z,-94
2016-11-23T12:26:29.807Z,-95
2016-11-23T12:27:28.669Z,-95
2016-11-23T12:28:28.815Z,-94
2016-11-23T12:29:28.676Z,-95
2016-11-23T12:30:33.017Z,-95
2016-11-23T12:31:28.849Z,-95
2016-11-23T12:32:28.788Z,-95
2016-11-23T12:33:28.859Z,-95
2016-11-23T12:34:28.936Z,-95
2016-11-23T12:35:28.875Z,-94
2016-11-23T12:36:28.941Z,-94
2016-11-23T12:37:28.853Z,-95
2016-11-23T12:38:28.702Z,-95
2016-11-23T12:39:28.754Z,-95
2016-11-23T12:40:28.789Z,-96
2016-11-23T12:41:29.206Z,-95
2016-11-23T12:42:29.459Z,-96
2016-11-23T12:43:29.137Z,-94
2016-11-23T12:44:31.408Z,-95
2016-11-23T12:45:28.775Z,-96
2016-11-23T12:46:28.979Z,-95
2016-11-23T12:47:28.864Z,-94
2016-11-23T12:48:28.997Z,-95
2016-11-23T12:49:28.686Z,-94
2016-11-23T12:50:28.884Z,-95
2016-11-23T12:51:29.161Z,-94
2016-11-23T12:52:28.922Z,-96
2016-11-23T12:53:29.669Z,-95
2016-11-23T12:54:29.144Z,-96
2016-11-23T12:55:28.952Z,-95
2016-11-23T12:56:29.078Z,-94
2016-11-23T12:57:29.107Z,-95
2016-11-23T12:58:28.747Z,-94
2016-11-23T12:59:28.755Z,-96
2016-11-23T13:00:28.871Z,-95
2016-11-23T13:01:29.069Z,-96
2016-11-23T13:02:28.650Z,-94
2016-11-23T13:03:28.645Z,-95
2016-11-23T13:04:28.711Z,-95
2016-11-23T13:05:28.736Z,-96
2016-11-23T13:06:28.897Z,-95
2016-11-23T13:07:29.127Z,-95
2016-11-23T13:08:28.806Z,-94
2016-11-23T13:09:28.894Z,-90
2016-11-23T13:10:28.724Z,-93
2016-11-23T13:11:29.010Z,-94
2016-11-23T13:12:28.609Z,-95
2016-11-23T13:13:28.991Z,-95
2016-11-23T13:14:33.358Z,-96
2016-11-23T13:15:28.962Z,-96
2016-11-23T13:16:28.780Z,-95
2016-11-23T13:17:28.740Z,-95
2016-11-23T13:18:28.935Z,-95
2016-11-23T13:19:28.817Z,-95
2016-11-23T13:20:31.597Z,-95
2016-11-23T13:21:28.931Z,-96
2016-11-23T13:22:28.607Z,-96
2016-11-23T13:23:28.938Z,-95
2016-11-23T13:24:28.915Z,-95
2016-11-23T13:25:34.071Z,-95
2016-11-23T13:26:29.685Z,-94
2016-11-23T13:27:31.930Z,-89
2016-11-23T13:28:28.977Z,-95
2016-11-23T13:29:39.248Z,-94
2016-11-23T13:30:29.541Z,-93
2016-11-23T13:31:29.076Z,-92
2016-11-23T13:32:28.845Z,-95
2016-11-23T13:33:29.370Z,-94
2016-11-23T13:34:28.663Z,-94
2016-11-23T13:35:29.558Z,-92
2016-11-23T13:36:29.814Z,-93
2016-11-23T13:37:28.957Z,-94
2016-11-23T13:38:29.068Z,-95
2016-11-23T13:39:29.501Z,-96
2016-11-23T13:40:28.789Z,-90
2016-11-23T13:41:30.892Z,-90
2016-11-23T13:42:28.864Z,-94
2016-11-23T13:43:29.584Z,-93
2016-11-23T13:44:28.828Z,-93
2016-11-23T13:45:30.376Z,-89
2016-11-23T13:46:31.855Z,-94
2016-11-23T13:47:30.021Z,-91
2016-11-23T13:48:29.044Z,-95
2016-11-23T13:49:28.979Z,-90
2016-11-23T13:50:28.900Z,-94